createdAt,value
2023-11-01T00:20:32.185Z,996.43
2023-11-01T00:50:50.489Z,996.4589
2023-11-01T01:21:10.454Z,996.237
2023-11-01T02:21:48.431Z,995.5879
2023-11-01T02:52:07.680Z,995.1799000000001
2023-11-01T03:22:26.352Z,995.0419999999999
2023-11-01T03:52:45.785Z,994.7689999999999
2023-11-01T04:23:05.145Z,994.6030000000001
2023-11-01T04:53:23.686Z,994.3429
2023-11-01T05:23:44.765Z,994.3028999999999
2023-11-01T05:54:02.959Z,994.1839
2023-11-01T06:24:19.123Z,994.148
2023-11-01T06:54:36.136Z,994.176
2023-11-01T07:24:54.237Z,994.316
2023-11-01T07:55:14.127Z,994.195
2023-11-01T08:25:34.150Z,994.084
2023-11-01T08:55:58.190Z,994.1210000000001
2023-11-01T09:26:15.683Z,994.076
2023-11-01T09:56:36.055Z,994.1939
2023-11-01T10:26:54.097Z,994.061
2023-11-01T10:57:12.903Z,993.5929
2023-11-01T11:27:31.849Z,993.085
2023-11-01T11:57:51.591Z,992.547
2023-11-01T12:28:09.403Z,992.0079
2023-11-01T12:58:29.675Z,991.632
2023-11-01T13:28:47.265Z,991.284
2023-11-01T13:59:04.630Z,990.8910000000001
2023-11-01T14:29:20.367Z,990.488
2023-11-01T15:29:54.960Z,990.1419999999999
2023-11-01T16:00:14.108Z,989.931
2023-11-01T16:30:33.292Z,989.9139
2023-11-01T17:00:54.298Z,989.72
2023-11-01T18:01:35.957Z,989.7409
2023-11-01T18:31:52.097Z,989.654
2023-11-01T19:02:12.321Z,989.6649000000001
2023-11-01T19:32:30.448Z,989.821
2023-11-01T20:02:46.502Z,989.5369999999999
2023-11-01T20:33:06.205Z,989.5929
2023-11-01T21:03:25.066Z,989.038
2023-11-01T21:33:41.812Z,988.6628999999999
2023-11-01T22:04:05.579Z,988.2189999999999
2023-11-01T22:34:22.129Z,987.702
2023-11-01T23:04:42.255Z,987.305
2023-11-01T23:35:00.584Z,986.582
